Time;durP1;ratioP1;P1;durP2;ratioP2;P2;SDS_P1;SDS_P2;PMS_P1;PMS_P2;Temp;Humidity;BMP_temperature;BMP_pressure;BME280_temperature;BME280_humidity;BME280_pressure;Samples;Min_cycle;Max_cycle;Signal;HPM_P1;HPM_P2
2022/08/17 00:01:21;;;;;;;2.42;2.08;;;24.40;79.00;;;;;;5042052;27;45420;-71
2022/08/17 00:03:51;;;;;;;2.10;1.90;;;24.40;78.50;;;;;;5036683;28;47719;-71
2022/08/17 00:06:20;;;;;;;2.97;2.30;;;24.40;78.80;;;;;;5034856;28;45412;-71
2022/08/17 00:08:51;;;;;;;2.85;2.28;;;24.40;78.70;;;;;;5037619;28;45316;-72
2022/08/17 00:11:20;;;;;;;3.08;2.10;;;24.30;78.70;;;;;;5042362;28;45637;-73
2022/08/17 00:13:52;;;;;;;2.30;2.10;;;24.30;78.50;;;;;;5036276;27;45485;-72
2022/08/17 00:16:22;;;;;;;2.90;2.22;;;24.40;78.40;;;;;;5040285;27;45555;-71
2022/08/17 00:18:50;;;;;;;3.30;2.47;;;24.30;78.20;;;;;;5033585;28;45304;-72
2022/08/17 00:21:19;;;;;;;2.88;2.00;;;24.40;78.20;;;;;;5036895;28;45483;-72
2022/08/17 00:23:48;;;;;;;3.35;2.20;;;24.40;78.20;;;;;;5035997;28;46854;-71
2022/08/17 00:26:14;;;;;;;3.28;2.28;;;24.40;78.20;;;;;;5040588;27;45466;-71
2022/08/17 00:28:42;;;;;;;2.50;2.30;;;24.40;78.40;;;;;;5039597;28;45398;-72
2022/08/17 00:31:10;;;;;;;2.58;2.17;;;24.40;78.20;;;;;;5044193;27;45409;-71
2022/08/17 00:33:39;;;;;;;3.30;2.67;;;24.40;78.20;;;;;;5039201;27;48572;-71
2022/08/17 00:36:07;;;;;;;3.05;2.50;;;24.40;78.40;;;;;;5032273;28;45433;-73
2022/08/17 00:38:34;;;;;;;3.55;2.28;;;24.40;78.30;;;;;;5048412;27;45248;-71
2022/08/17 00:41:05;;;;;;;3.85;2.28;;;24.40;78.30;;;;;;5033665;27;45499;-71
2022/08/17 00:43:34;;;;;;;3.05;2.30;;;24.40;78.40;;;;;;5059051;28;46397;-71
2022/08/17 00:46:05;;;;;;;2.80;2.20;;;24.40;78.30;;;;;;5060496;28;45292;-71
2022/08/17 00:48:33;;;;;;;2.42;2.00;;;24.40;78.40;;;;;;5037186;28;45447;-72
2022/08/17 00:51:05;;;;;;;3.35;2.40;;;24.40;78.10;;;;;;5037559;27;45690;-71
2022/08/17 00:53:34;;;;;;;2.90;2.22;;;24.40;78.30;;;;;;5037550;27;45402;-71
2022/08/17 00:56:05;;;;;;;3.20;2.35;;;24.40;78.30;;;;;;5032665;28;45867;-71
2022/08/17 00:58:33;;;;;;;2.47;2.00;;;24.40;78.40;;;;;;5023092;28;45420;-73
2022/08/17 01:01:01;;;;;;;2.30;1.98;;;24.40;78.20;;;;;;5033518;28;45267;-71
2022/08/17 01:03:28;;;;;;;2.78;2.20;;;24.40;78.30;;;;;;5074714;27;47414;-71
2022/08/17 01:05:58;;;;;;;2.47;2.25;;;24.40;78.20;;;;;;5031851;27;45388;-71
2022/08/17 01:08:28;;;;;;;2.65;2.28;;;24.40;78.30;;;;;;5091252;27;45399;-71
2022/08/17 01:11:00;;;;;;;3.17;2.22;;;24.40;78.30;;;;;;5093477;27;45368;-72
2022/08/17 01:13:31;;;;;;;2.95;2.25;;;24.40;78.40;;;;;;5073976;27;49149;-72
2022/08/17 01:16:01;;;;;;;1.90;1.70;;;24.40;78.40;;;;;;5031225;28;45543;-71
2022/08/17 01:18:29;;;;;;;4.03;2.13;;;24.40;78.40;;;;;;5030384;28;45501;-71
2022/08/17 01:20:58;;;;;;;2.30;2.10;;;24.40;78.30;;;;;;5072453;27;45438;-72
2022/08/17 01:23:27;;;;;;;2.55;2.00;;;24.30;78.40;;;;;;5033155;27;47104;-71
2022/08/17 01:25:56;;;;;;;2.47;2.10;;;24.40;78.60;;;;;;5073839;27;45446;-71
2022/08/17 01:28:26;;;;;;;3.65;1.80;;;24.30;78.50;;;;;;5034483;27;45361;-71
2022/08/17 01:30:55;;;;;;;2.80;2.10;;;24.40;78.70;;;;;;5031104;27;45439;-72
2022/08/17 01:33:22;;;;;;;3.05;2.45;;;24.40;78.60;;;;;;5029722;27;48153;-71
2022/08/17 01:35:49;;;;;;;2.17;1.98;;;24.30;78.50;;;;;;5022326;28;45326;-71
2022/08/17 01:38:17;;;;;;;2.10;1.80;;;24.30;78.50;;;;;;5075768;27;45311;-72
2022/08/17 01:40:51;;;;;;;1.98;1.77;;;24.30;78.70;;;;;;5039215;28;45587;-71
2022/08/17 01:43:21;;;;;;;2.70;1.85;;;24.30;78.80;;;;;;5073515;27;47376;-71
2022/08/17 01:45:50;;;;;;;2.78;2.10;;;24.30;78.70;;;;;;5020514;28;45344;-71
2022/08/17 01:48:18;;;;;;;1.95;1.75;;;24.40;78.80;;;;;;5073435;27;45454;-72
2022/08/17 01:50:47;;;;;;;2.42;1.98;;;24.40;78.70;;;;;;5026759;28;45450;-71
2022/08/17 01:53:18;;;;;;;2.58;2.10;;;24.40;78.70;;;;;;5032611;28;47092;-71
2022/08/17 01:55:50;;;;;;;3.35;2.40;;;24.40;78.60;;;;;;5033608;28;45518;-71
2022/08/17 01:58:17;;;;;;;2.28;2.00;;;24.40;78.50;;;;;;5031859;28;45298;-71
2022/08/17 02:00:46;;;;;;;3.17;2.00;;;24.40;78.70;;;;;;5074968;27;45493;-72
2022/08/17 02:03:14;;;;;;;2.58;2.13;;;24.40;78.60;;;;;;5030892;28;47082;-72
2022/08/17 02:05:40;;;;;;;2.10;1.90;;;24.40;78.70;;;;;;5027109;28;45242;-71
2022/08/17 02:08:07;;;;;;;2.53;2.10;;;24.40;78.70;;;;;;5038544;28;45446;-72
2022/08/17 02:10:34;;;;;;;2.85;1.90;;;24.40;78.70;;;;;;5040410;28;45336;-71
2022/08/17 02:13:03;;;;;;;3.08;1.98;;;24.40;78.70;;;;;;5051514;27;46347;-71
2022/08/17 02:15:30;;;;;;;2.17;1.98;;;24.40;78.30;;;;;;5048973;27;45355;-71
2022/08/17 02:17:57;;;;;;;2.17;1.98;;;24.30;78.50;;;;;;5060571;28;45364;-71
2022/08/17 02:20:24;;;;;;;2.20;1.95;;;24.40;78.40;;;;;;5042215;28;45429;-72
2022/08/17 02:22:51;;;;;;;2.63;2.22;;;24.30;78.20;;;;;;5050478;27;45353;-71
2022/08/17 02:25:20;;;;;;;2.40;2.20;;;24.30;77.80;;;;;;5053018;27;45374;-72
2022/08/17 02:27:47;;;;;;;2.83;2.10;;;24.30;77.70;;;;;;5053922;28;45410;-71
2022/08/17 02:30:16;;;;;;;2.33;2.10;;;24.30;78.60;;;;;;5073948;27;45581;-72
2022/08/17 02:32:43;;;;;;;2.72;2.40;;;24.30;77.40;;;;;;5056580;27;45332;-72
2022/08/17 02:35:12;;;;;;;2.03;1.88;;;24.30;77.20;;;;;;5053295;27;45388;-71
2022/08/17 02:37:40;;;;;;;2.40;1.95;;;24.30;77.10;;;;;;5067124;27;45466;-71
2022/08/17 02:40:08;;;;;;;2.25;1.88;;;24.30;77.20;;;;;;5029772;27;45455;-71
2022/08/17 02:42:38;;;;;;;2.63;2.28;;;24.30;77.00;;;;;;5058702;27;45457;-72
2022/08/17 02:45:09;;;;;;;1.90;1.77;;;24.30;76.90;;;;;;5052020;27;45438;-71
2022/08/17 02:47:38;;;;;;;3.00;2.20;;;24.30;77.10;;;;;;5063220;27;45413;-71
2022/08/17 02:50:07;;;;;;;2.45;2.10;;;24.30;76.80;;;;;;5069544;27;45536;-71
2022/08/17 02:52:36;;;;;;;2.17;1.98;;;24.30;76.90;;;;;;5027077;28;46659;-71
2022/08/17 02:55:04;;;;;;;1.92;1.73;;;24.30;76.90;;;;;;5068849;27;45443;-71
2022/08/17 02:57:31;;;;;;;2.08;1.88;;;24.30;76.80;;;;;;5027600;28;45265;-72
2022/08/17 02:59:57;;;;;;;2.25;2.05;;;24.30;76.90;;;;;;5065531;27;45338;-71
2022/08/17 03:02:24;;;;;;;2.25;2.00;;;24.30;76.70;;;;;;5074945;27;46322;-71
2022/08/17 03:04:52;;;;;;;1.95;1.85;;;24.30;76.70;;;;;;5034292;28;45610;-73
2022/08/17 03:07:19;;;;;;;2.10;1.90;;;24.30;76.60;;;;;;5069656;27;45332;-71
2022/08/17 03:09:46;;;;;;;2.05;1.85;;;24.30;76.80;;;;;;5038063;28;45494;-71
2022/08/17 03:12:14;;;;;;;3.00;1.95;;;24.30;76.60;;;;;;5039715;28;46575;-71
2022/08/17 03:14:42;;;;;;;2.10;1.90;;;24.30;76.80;;;;;;5038301;28;45802;-71
2022/08/17 03:17:09;;;;;;;2.33;2.00;;;24.30;76.40;;;;;;5037357;28;45456;-71
2022/08/17 03:19:36;;;;;;;2.00;1.77;;;24.30;76.60;;;;;;5037283;28;45531;-72
2022/08/17 03:22:08;;;;;;;2.65;2.00;;;24.30;76.60;;;;;;5038017;28;46602;-71
2022/08/17 03:24:35;;;;;;;1.75;1.60;;;24.30;76.50;;;;;;5032688;28;45447;-71
2022/08/17 03:27:01;;;;;;;1.80;1.70;;;24.30;76.40;;;;;;5037732;27;45366;-72
2022/08/17 03:29:28;;;;;;;2.25;1.92;;;24.30;76.40;;;;;;5035665;28;45420;-72
2022/08/17 03:31:55;;;;;;;2.28;1.80;;;24.30;76.50;;;;;;5035404;28;46308;-71
2022/08/17 03:34:22;;;;;;;2.63;2.05;;;24.30;76.30;;;;;;5042410;27;45593;-73
2022/08/17 03:36:49;;;;;;;3.08;2.30;;;24.30;76.40;;;;;;5027176;27;45642;-71
2022/08/17 03:39:17;;;;;;;2.33;1.90;;;24.30;76.30;;;;;;5037048;28;45653;-71
2022/08/17 03:41:44;;;;;;;2.28;2.08;;;24.30;76.30;;;;;;5037023;27;47434;-71
2022/08/17 03:44:10;;;;;;;2.38;1.98;;;24.30;76.40;;;;;;5039181;28;45615;-71
2022/08/17 03:57:35;;;;;;;2.45;2.25;;;24.30;75.90;;;;;;5039561;28;45424;-71
2022/08/17 04:00:03;;;;;;;2.22;1.85;;;24.30;76.00;;;;;;5038573;27;45425;-72
2022/08/17 04:02:32;;;;;;;2.47;2.13;;;24.30;76.00;;;;;;5028835;27;46265;-71
2022/08/17 04:04:59;;;;;;;2.20;2.00;;;24.30;75.80;;;;;;5036362;28;45407;-71
2022/08/17 04:07:28;;;;;;;2.90;2.35;;;24.30;76.00;;;;;;5076448;27;45444;-71
2022/08/17 04:09:58;;;;;;;2.85;2.08;;;24.30;75.60;;;;;;5032892;28;45750;-71
2022/08/17 04:12:29;;;;;;;2.25;2.05;;;24.20;75.70;;;;;;5051436;28;47503;-71
2022/08/17 04:14:56;;;;;;;2.40;2.20;;;24.30;75.40;;;;;;5041496;27;45557;-71
2022/08/17 04:17:24;;;;;;;4.32;2.30;;;24.30;75.40;;;;;;5046433;27;45472;-71
2022/08/17 04:19:52;;;;;;;3.22;2.05;;;24.20;75.30;;;;;;5032613;28;45431;-71
2022/08/17 04:22:18;;;;;;;2.45;2.00;;;24.20;75.70;;;;;;5022971;28;48609;-71
2022/08/17 04:24:45;;;;;;;2.15;1.85;;;24.20;75.80;;;;;;5075903;27;45306;-72
2022/08/17 04:27:13;;;;;;;3.13;1.92;;;24.20;76.00;;;;;;5022457;28;45503;-71
2022/08/17 04:29:40;;;;;;;2.92;2.25;;;24.20;76.10;;;;;;5088930;27;45323;-71
2022/08/17 04:32:07;;;;;;;2.42;2.15;;;24.20;76.30;;;;;;5065741;27;47640;-71
2022/08/17 04:34:34;;;;;;;2.15;1.95;;;24.20;76.40;;;;;;5035252;27;45336;-72
2022/08/17 04:37:00;;;;;;;2.38;2.10;;;24.20;76.40;;;;;;5037833;28;45282;-72
2022/08/17 04:39:27;;;;;;;2.67;2.08;;;24.20;76.50;;;;;;5031938;28;45373;-71
2022/08/17 04:44:45;;;;;;;2.05;1.85;;;24.20;76.80;;;;;;5030093;28;45314;-71
2022/08/17 04:47:12;;;;;;;2.38;2.15;;;24.20;76.70;;;;;;5040985;27;45308;-71
2022/08/17 04:49:39;;;;;;;2.00;1.80;;;24.20;76.80;;;;;;5041945;28;45534;-71
2022/08/17 04:52:06;;;;;;;2.20;2.00;;;24.20;76.80;;;;;;5041276;28;47288;-71
2022/08/17 04:54:33;;;;;;;1.90;1.80;;;24.20;76.80;;;;;;5041536;28;45259;-72
2022/08/17 04:56:59;;;;;;;2.30;1.83;;;24.20;76.90;;;;;;5040764;28;45368;-70
2022/08/17 04:59:26;;;;;;;2.08;1.92;;;24.20;77.00;;;;;;5041662;28;45545;-72
2022/08/17 05:01:54;;;;;;;2.10;1.90;;;24.20;77.00;;;;;;5040995;28;45436;-70
2022/08/17 05:04:23;;;;;;;1.80;1.60;;;24.20;77.00;;;;;;5042332;28;45560;-71
2022/08/17 05:06:51;;;;;;;2.40;1.88;;;24.20;77.00;;;;;;5050183;27;45262;-72
2022/08/17 05:09:18;;;;;;;2.10;1.88;;;24.20;77.00;;;;;;5031619;28;45445;-71
2022/08/17 05:11:45;;;;;;;2.05;1.80;;;24.20;77.00;;;;;;5073074;27;46433;-71
2022/08/17 05:14:12;;;;;;;2.00;1.80;;;24.20;77.90;;;;;;5035556;28;46399;-73
2022/08/17 05:16:39;;;;;;;2.30;2.10;;;24.20;76.90;;;;;;5069702;27;45259;-71
2022/08/17 05:19:07;;;;;;;2.05;1.80;;;24.20;77.00;;;;;;5073633;27;45413;-73
2022/08/17 05:21:34;;;;;;;2.58;1.90;;;24.20;77.00;;;;;;5041779;28;47469;-72
2022/08/17 05:24:02;;;;;;;1.98;1.77;;;24.30;77.10;;;;;;5041272;28;45189;-73
2022/08/17 05:26:29;;;;;;;3.38;2.28;;;24.20;78.00;;;;;;5041339;28;45309;-73
2022/08/17 05:28:57;;;;;;;1.60;1.50;;;24.30;77.10;;;;;;5032526;28;45540;-72
2022/08/17 05:31:24;;;;;;;2.13;1.98;;;24.30;77.10;;;;;;5048268;27;46669;-71
2022/08/17 05:33:52;;;;;;;2.03;1.77;;;24.30;77.10;;;;;;5052577;27;45492;-71
2022/08/17 05:36:20;;;;;;;3.10;1.90;;;24.20;77.10;;;;;;5031101;28;45454;-72
2022/08/17 05:38:46;;;;;;;2.60;2.10;;;24.20;77.20;;;;;;5036224;28;45339;-71
2022/08/17 05:41:13;;;;;;;3.83;2.60;;;24.30;77.60;;;;;;5036733;27;47194;-71
2022/08/17 05:43:42;;;;;;;3.00;2.03;;;24.30;78.10;;;;;;5037430;28;45500;-71
2022/08/17 05:46:15;;;;;;;2.55;2.20;;;24.30;78.30;;;;;;5020175;28;45404;-71
2022/08/17 05:48:44;;;;;;;3.97;2.65;;;24.30;78.10;;;;;;5038064;28;45252;-71
2022/08/17 05:51:48;;;;;;;3.75;2.30;;;24.30;77.60;;;;;;5021840;28;48151;-71
2022/08/17 05:54:32;;;;;;;3.60;2.67;;;24.30;77.10;;;;;;5018724;27;45634;-72
2022/08/17 05:57:23;;;;;;;3.65;2.67;;;24.40;76.40;;;;;;5033648;27;45300;-73
2022/08/17 06:00:03;;;;;;;5.15;2.58;;;24.30;76.20;;;;;;5045379;27;45433;-72
2022/08/17 06:02:49;;;;;;;5.53;2.67;;;24.40;76.40;;;;;;5035803;27;47521;-72
2022/08/17 06:05:29;;;;;;;4.15;2.70;;;24.40;77.00;;;;;;5047483;28;45598;-72
2022/08/17 06:08:05;;;;;;;3.50;2.47;;;24.40;77.40;;;;;;5035659;28;45564;-72
2022/08/17 06:10:40;;;;;;;5.13;2.63;;;24.40;78.50;;;;;;5043548;28;45392;-71
2022/08/17 06:13:19;;;;;;;4.07;2.70;;;24.40;77.70;;;;;;5041735;27;45494;-71
2022/08/17 06:15:55;;;;;;;6.03;2.72;;;24.40;77.80;;;;;;5039438;28;45409;-74
2022/08/17 06:18:25;;;;;;;4.03;2.50;;;24.40;77.80;;;;;;5042174;28;45513;-71
2022/08/17 06:20:56;;;;;;;3.78;2.70;;;24.40;77.70;;;;;;5037317;27;45532;-72
2022/08/17 06:23:30;;;;;;;5.95;2.30;;;24.40;77.60;;;;;;5039551;28;48002;-71
2022/08/17 06:26:03;;;;;;;4.22;2.28;;;24.40;77.50;;;;;;5038399;28;45453;-71
2022/08/17 06:28:40;;;;;;;4.95;2.72;;;24.40;77.50;;;;;;5036932;28;45337;-71
2022/08/17 06:31:15;;;;;;;4.18;2.58;;;24.40;77.50;;;;;;5050913;27;45341;-71
2022/08/17 06:33:46;;;;;;;4.78;2.53;;;24.40;77.40;;;;;;5037477;28;46957;-71
2022/08/17 06:36:28;;;;;;;3.97;2.67;;;24.40;77.30;;;;;;5035995;27;45377;-72
2022/08/17 06:39:07;;;;;;;4.88;2.90;;;24.40;77.30;;;;;;5039162;28;45368;-71
2022/08/17 06:41:41;;;;;;;4.47;3.15;;;24.40;77.30;;;;;;5037885;28;45401;-71
2022/08/17 06:44:15;;;;;;;3.97;2.67;;;24.40;77.30;;;;;;5037787;27;46468;-72
2022/08/17 06:46:47;;;;;;;3.15;2.55;;;24.40;77.40;;;;;;5036105;28;45294;-71
2022/08/17 06:49:24;;;;;;;2.45;2.05;;;24.40;77.50;;;;;;5037629;27;45354;-71
2022/08/17 06:51:56;;;;;;;3.97;2.60;;;24.40;77.50;;;;;;5038861;28;45649;-72
2022/08/17 06:54:37;;;;;;;3.50;2.63;;;24.40;77.50;;;;;;5034067;28;46543;-71
2022/08/17 06:57:14;;;;;;;3.85;2.63;;;24.40;77.60;;;;;;5033882;28;45359;-72
2022/08/17 06:59:49;;;;;;;3.90;2.50;;;24.40;77.60;;;;;;5033250;28;45352;-71
2022/08/17 07:02:21;;;;;;;4.47;2.58;;;24.40;77.60;;;;;;5034507;28;45349;-71
2022/08/17 07:04:48;;;;;;;3.17;2.53;;;24.40;77.60;;;;;;5035453;27;46830;-71
2022/08/17 07:10:03;;;;;;;3.42;2.70;;;24.40;77.60;;;;;;5014573;28;45451;-71
2022/08/17 07:12:37;;;;;;;3.28;2.88;;;24.40;77.60;;;;;;5035861;28;45452;-71
2022/08/17 07:15:11;;;;;;;2.83;2.28;;;24.40;77.50;;;;;;5037118;27;47555;-71
2022/08/17 07:17:38;;;;;;;4.20;2.50;;;24.40;77.50;;;;;;5036606;28;45438;-71
2022/08/17 07:20:08;;;;;;;3.17;2.40;;;24.40;77.50;;;;;;5035191;28;45416;-71
2022/08/17 07:22:46;;;;;;;2.78;2.47;;;24.40;77.50;;;;;;5036348;28;45526;-72
2022/08/17 07:25:17;;;;;;;4.32;2.88;;;24.40;77.50;;;;;;5035945;27;46369;-71
2022/08/17 07:27:49;;;;;;;4.45;2.45;;;24.40;77.50;;;;;;5033241;27;45417;-71
2022/08/17 07:30:21;;;;;;;3.33;2.78;;;24.40;77.50;;;;;;5038729;28;45703;-72
2022/08/17 07:32:52;;;;;;;2.65;2.30;;;24.40;77.70;;;;;;5031392;28;45486;-72
2022/08/17 07:35:21;;;;;;;3.03;2.70;;;24.40;77.80;;;;;;5037856;28;46360;-72
2022/08/17 07:37:52;;;;;;;3.42;2.83;;;24.40;77.80;;;;;;5040511;27;45452;-72
2022/08/17 07:40:28;;;;;;;3.60;2.40;;;24.40;77.70;;;;;;5065952;27;45345;-73
2022/08/17 07:43:20;;;;;;;4.70;2.85;;;24.40;77.70;;;;;;5027429;28;45379;-72
2022/08/17 07:48:51;;;;;;;4.32;3.13;;;24.40;77.80;;;;;;5062470;27;45367;-72
2022/08/17 07:51:26;;;;;;;4.47;2.70;;;24.40;77.80;;;;;;5048719;27;45534;-72
2022/08/17 07:53:54;;;;;;;4.25;2.70;;;24.40;77.90;;;;;;5034434;28;45538;-72
2022/08/17 07:56:39;;;;;;;3.08;2.50;;;24.40;77.80;;;;;;5072737;27;46979;-72
2022/08/17 07:59:08;;;;;;;3.70;2.78;;;24.40;78.00;;;;;;5074452;27;45478;-72
2022/08/17 08:01:36;;;;;;;4.57;2.83;;;24.40;78.00;;;;;;5033661;27;45349;-72
2022/08/17 08:04:17;;;;;;;3.35;2.55;;;24.40;77.90;;;;;;5070300;27;45688;-72
2022/08/17 08:06:51;;;;;;;5.05;3.22;;;24.40;78.00;;;;;;5038102;28;46330;-71
2022/08/17 08:09:39;;;;;;;3.50;2.50;;;24.40;78.10;;;;;;5030991;28;45356;-72
2022/08/17 08:12:32;;;;;;;2.80;2.40;;;24.40;78.10;;;;;;5046719;27;45806;-73
2022/08/17 08:15:01;;;;;;;3.70;3.13;;;24.40;78.30;;;;;;5049729;28;45338;-74
2022/08/17 08:17:34;;;;;;;2.97;2.60;;;24.40;78.20;;;;;;5048953;27;45336;-72
2022/08/17 08:20:04;;;;;;;3.88;2.80;;;24.40;78.20;;;;;;5040254;28;45563;-72
2022/08/17 08:22:43;;;;;;;3.50;2.83;;;24.40;78.20;;;;;;5027134;28;45536;-72
2022/08/17 08:25:23;;;;;;;3.97;2.80;;;24.40;78.40;;;;;;5028600;28;45301;-72
2022/08/17 08:28:02;;;;;;;3.38;2.63;;;24.40;78.40;;;;;;5032214;27;48351;-71
2022/08/17 08:30:34;;;;;;;3.70;2.53;;;24.40;78.40;;;;;;5051129;27;45479;-71
2022/08/17 08:33:17;;;;;;;3.00;2.70;;;24.40;78.40;;;;;;5032619;28;45464;-71
2022/08/17 08:35:49;;;;;;;3.78;2.80;;;24.40;78.40;;;;;;5036107;28;45553;-71
2022/08/17 08:38:28;;;;;;;3.17;2.85;;;24.40;78.40;;;;;;5079386;27;45454;-72
2022/08/17 08:41:09;;;;;;;5.25;2.85;;;24.40;78.40;;;;;;5027630;28;45967;-72
2022/08/17 08:43:46;;;;;;;3.33;2.83;;;24.40;78.40;;;;;;5033837;27;45355;-73
2022/08/17 08:46:20;;;;;;;3.25;2.63;;;24.40;78.40;;;;;;5034230;28;45364;-71
2022/08/17 08:49:22;;;;;;;3.40;2.80;;;24.40;78.50;;;;;;5032890;28;45278;-71
2022/08/17 08:51:54;;;;;;;3.67;3.00;;;24.40;78.60;;;;;;5036091;28;45524;-71
2022/08/17 08:54:33;;;;;;;3.60;2.72;;;24.40;78.60;;;;;;5051829;27;45478;-72
2022/08/17 08:57:10;;;;;;;3.80;3.10;;;24.40;78.70;;;;;;5073001;27;45332;-71
2022/08/17 08:59:50;;;;;;;3.33;2.85;;;24.40;78.70;;;;;;5019959;28;46710;-72
2022/08/17 09:02:40;;;;;;;3.30;2.63;;;24.40;78.70;;;;;;5031813;28;45286;-71
2022/08/17 09:05:16;;;;;;;3.63;3.00;;;24.40;78.70;;;;;;5039493;28;45559;-71
2022/08/17 09:07:51;;;;;;;3.55;2.97;;;24.40;78.70;;;;;;5039454;28;45360;-71
2022/08/17 09:10:24;;;;;;;3.20;2.58;;;24.40;78.70;;;;;;5044260;28;48551;-72
2022/08/17 09:13:02;;;;;;;3.00;2.60;;;24.40;78.70;;;;;;5038329;28;45273;-71
2022/08/17 09:15:36;;;;;;;3.35;2.95;;;24.40;78.60;;;;;;5041606;28;45270;-71
2022/08/17 09:18:08;;;;;;;3.75;2.70;;;24.40;78.60;;;;;;5043210;27;45383;-71
2022/08/17 09:20:41;;;;;;;3.17;2.80;;;24.40;78.60;;;;;;5039250;27;45400;-71
2022/08/17 09:23:14;;;;;;;3.60;3.10;;;24.40;78.70;;;;;;5040875;27;45477;-72
2022/08/17 09:25:48;;;;;;;3.33;3.03;;;24.40;78.60;;;;;;5043389;27;45383;-71
2022/08/17 09:28:18;;;;;;;3.20;2.83;;;24.40;78.70;;;;;;5038550;28;45429;-71
2022/08/17 09:30:50;;;;;;;3.28;2.97;;;24.40;78.60;;;;;;5037483;27;45364;-71
2022/08/17 09:33:24;;;;;;;3.30;3.00;;;24.40;78.70;;;;;;5039891;27;45417;-71
2022/08/17 09:35:55;;;;;;;3.38;2.88;;;24.40;78.70;;;;;;5028984;28;45515;-71
2022/08/17 09:38:30;;;;;;;4.03;2.92;;;24.40;78.70;;;;;;5030932;28;45324;-71
2022/08/17 09:41:07;;;;;;;4.32;3.25;;;24.40;78.90;;;;;;5036021;28;46596;-71
2022/08/17 09:43:42;;;;;;;3.97;3.03;;;24.40;78.90;;;;;;5036603;28;45463;-72
2022/08/17 09:46:15;;;;;;;5.55;3.30;;;24.40;78.80;;;;;;5040726;27;45479;-73
2022/08/17 09:48:49;;;;;;;3.70;3.03;;;24.40;78.90;;;;;;5048880;27;45482;-73
2022/08/17 09:51:21;;;;;;;3.45;3.03;;;24.40;78.90;;;;;;5047529;28;46281;-72
2022/08/17 09:53:49;;;;;;;3.40;2.97;;;24.40;78.80;;;;;;5047577;28;45534;-72
2022/08/17 09:56:34;;;;;;;4.18;2.78;;;24.40;78.80;;;;;;5037877;27;45509;-71
2022/08/17 09:59:15;;;;;;;3.97;2.80;;;24.40;78.80;;;;;;5049086;28;45620;-73
2022/08/17 10:01:51;;;;;;;3.42;2.92;;;24.40;78.80;;;;;;5047083;28;47255;-72
2022/08/17 10:04:31;;;;;;;4.63;3.28;;;24.40;78.70;;;;;;5042913;27;45350;-72
2022/08/17 10:07:04;;;;;;;3.10;2.63;;;24.40;78.70;;;;;;5043806;28;45515;-73
2022/08/17 10:09:46;;;;;;;5.70;3.38;;;24.40;78.70;;;;;;5041955;28;45533;-73
2022/08/17 10:12:23;;;;;;;3.42;3.03;;;24.40;78.70;;;;;;5049096;28;45403;-73
2022/08/17 10:15:03;;;;;;;4.07;3.30;;;24.40;78.70;;;;;;5048604;27;45366;-71
2022/08/17 10:17:39;;;;;;;3.13;2.70;;;24.40;78.90;;;;;;5048951;27;45594;-72
2022/08/17 10:20:12;;;;;;;3.40;2.67;;;24.40;79.00;;;;;;5054618;27;45335;-71
2022/08/17 10:28:22;;;;;;;4.22;3.28;;;24.50;79.40;;;;;;5054938;27;45319;-73
2022/08/17 10:30:52;;;;;;;4.03;3.17;;;24.40;79.50;;;;;;5047751;27;45674;-72
2022/08/17 10:33:26;;;;;;;3.95;3.33;;;24.50;79.50;;;;;;5042553;27;46313;-72
2022/08/17 10:36:01;;;;;;;4.03;3.55;;;24.50;79.60;;;;;;5043683;28;46536;-72
2022/08/17 10:38:45;;;;;;;4.13;3.47;;;24.50;79.60;;;;;;5035004;28;45454;-72
2022/08/17 10:41:23;;;;;;;4.70;3.65;;;24.40;79.50;;;;;;5044645;27;45601;-71
2022/08/17 10:43:59;;;;;;;4.25;3.38;;;24.40;79.50;;;;;;5061039;27;45501;-71
2022/08/17 10:46:45;;;;;;;4.15;3.20;;;24.40;79.50;;;;;;5037531;27;45336;-71
2022/08/17 10:49:28;;;;;;;4.70;3.95;;;24.50;79.60;;;;;;5032139;28;45367;-71
2022/08/17 10:51:57;;;;;;;4.43;3.75;;;24.50;79.70;;;;;;5066691;27;45431;-72
2022/08/17 10:54:37;;;;;;;4.45;3.80;;;24.40;79.60;;;;;;5035778;28;46140;-71
2022/08/17 10:57:39;;;;;;;6.43;4.70;;;24.50;79.90;;;;;;5033998;27;45407;-71
2022/08/17 11:00:35;;;;;;;4.72;3.53;;;24.40;80.00;;;;;;5042424;28;45779;-72
2022/08/17 11:03:02;;;;;;;4.70;3.97;;;24.40;80.30;;;;;;5039081;27;45412;-71
2022/08/17 11:05:45;;;;;;;4.63;3.95;;;24.40;80.30;;;;;;5045283;28;47962;-71
2022/08/17 11:08:35;;;;;;;4.70;3.70;;;24.50;80.40;;;;;;5039611;27;45661;-72
2022/08/17 11:11:16;;;;;;;6.32;3.60;;;24.50;80.50;;;;;;5034813;27;45475;-70
2022/08/17 11:13:51;;;;;;;5.18;4.30;;;24.50;80.50;;;;;;5040953;28;45564;-70
2022/08/17 11:16:36;;;;;;;5.63;3.83;;;24.50;80.30;;;;;;5036004;28;46556;-69
2022/08/17 11:19:40;;;;;;;7.35;4.07;;;24.40;80.50;;;;;;5048175;27;45384;-70
2022/08/17 11:22:39;;;;;;;4.55;3.83;;;24.50;80.60;;;;;;5036677;28;45266;-69
2022/08/17 11:25:15;;;;;;;5.57;4.03;;;24.40;81.50;;;;;;5047291;28;45584;-70
2022/08/17 11:27:44;;;;;;;5.07;3.95;;;24.40;80.70;;;;;;5057689;28;47113;-69
2022/08/17 11:30:21;;;;;;;4.97;4.20;;;24.40;80.70;;;;;;5052687;28;45340;-70
2022/08/17 11:32:50;;;;;;;7.05;4.47;;;24.40;80.70;;;;;;5038917;28;45486;-69
2022/08/17 11:35:31;;;;;;;4.90;3.80;;;24.40;80.80;;;;;;5048627;27;45293;-70
2022/08/17 11:38:15;;;;;;;6.25;4.10;;;24.40;81.20;;;;;;5037728;27;48087;-70
2022/08/17 11:41:06;;;;;;;4.80;4.07;;;24.40;81.20;;;;;;5069788;27;45787;-71
2022/08/17 11:44:02;;;;;;;3.97;3.08;;;24.40;81.20;;;;;;5026488;28;45449;-70
2022/08/17 11:52:38;;;;;;;4.57;3.67;;;24.40;81.10;;;;;;5041774;28;45449;-69
2022/08/17 11:55:11;;;;;;;4.35;3.60;;;24.40;81.20;;;;;;5038963;28;45470;-69
2022/08/17 11:58:06;;;;;;;6.28;4.72;;;24.40;81.10;;;;;;5045309;28;45232;-69
2022/08/17 12:00:55;;;;;;;4.03;3.40;;;24.40;81.20;;;;;;5051387;27;46279;-69
2022/08/17 12:03:42;;;;;;;4.95;3.83;;;24.40;82.20;;;;;;5037146;28;46806;-70
2022/08/17 12:06:31;;;;;;;5.65;4.18;;;24.40;81.20;;;;;;5036376;27;45367;-70
2022/08/17 12:09:06;;;;;;;5.75;4.22;;;24.40;81.20;;;;;;5045965;28;45250;-69
2022/08/17 12:11:43;;;;;;;6.60;4.30;;;24.40;81.20;;;;;;5047967;27;46188;-70
2022/08/17 12:14:14;;;;;;;6.68;4.70;;;24.40;81.20;;;;;;5027406;28;45272;-70
2022/08/17 12:16:43;;;;;;;6.45;5.20;;;24.40;81.30;;;;;;5018543;28;45236;-70
2022/08/17 12:19:19;;;;;;;7.30;5.55;;;24.40;81.40;;;;;;5040002;27;45415;-70
2022/08/17 12:21:51;;;;;;;8.27;5.03;;;24.40;81.30;;;;;;5082911;27;46367;-70
2022/08/17 12:24:30;;;;;;;6.93;4.90;;;24.40;81.50;;;;;;5059352;27;45450;-70
2022/08/17 12:27:01;;;;;;;5.57;4.22;;;24.40;81.70;;;;;;5056895;28;45572;-71
2022/08/17 12:29:29;;;;;;;6.55;5.43;;;24.40;81.90;;;;;;5049073;27;45414;-69
2022/08/17 12:31:57;;;;;;;6.13;4.55;;;24.40;82.10;;;;;;5053834;28;47239;-70
2022/08/17 12:34:26;;;;;;;5.88;4.60;;;24.40;82.10;;;;;;5079360;27;45452;-69
2022/08/17 12:36:59;;;;;;;7.00;4.80;;;24.40;83.10;;;;;;5040241;28;45428;-69
2022/08/17 12:39:27;;;;;;;5.60;5.03;;;24.40;82.10;;;;;;5050776;27;45337;-70
2022/08/17 12:41:57;;;;;;;5.75;4.45;;;24.40;82.10;;;;;;5082837;27;46386;-70
2022/08/17 12:44:29;;;;;;;6.00;5.10;;;24.40;82.10;;;;;;5076552;27;45287;-70
2022/08/17 12:47:02;;;;;;;6.43;5.20;;;24.40;82.10;;;;;;5079973;27;45373;-71
2022/08/17 12:49:32;;;;;;;6.13;5.30;;;24.40;82.10;;;;;;5030030;27;45401;-69
2022/08/17 12:52:13;;;;;;;5.07;4.30;;;24.40;82.10;;;;;;5074090;27;45407;-69
2022/08/17 12:54:46;;;;;;;6.95;5.57;;;24.40;82.10;;;;;;5074247;27;45344;-69
2022/08/17 12:57:15;;;;;;;6.40;5.60;;;24.40;82.10;;;;;;5042339;27;45435;-70
2022/08/17 12:59:47;;;;;;;6.60;5.13;;;24.40;82.10;;;;;;5074480;27;45427;-70
2022/08/17 13:02:32;;;;;;;8.20;6.00;;;24.40;82.10;;;;;;5082606;27;47439;-69
2022/08/17 13:05:01;;;;;;;8.32;6.65;;;24.40;82.10;;;;;;5032418;28;45345;-70
2022/08/17 13:07:31;;;;;;;6.70;5.55;;;24.40;82.10;;;;;;5046179;27;45375;-69
2022/08/17 13:09:58;;;;;;;7.38;6.18;;;24.40;82.10;;;;;;5040518;27;45413;-70
2022/08/17 13:12:33;;;;;;;6.60;5.75;;;24.40;82.10;;;;;;5072377;27;45261;-69
2022/08/17 13:15:02;;;;;;;6.05;5.35;;;24.40;82.10;;;;;;5076099;27;45369;-70
2022/08/17 13:17:33;;;;;;;7.72;5.85;;;24.40;82.10;;;;;;5056313;27;45706;-70
2022/08/17 13:20:01;;;;;;;9.25;6.30;;;24.40;82.10;;;;;;5044034;27;45405;-70
2022/08/17 13:22:31;;;;;;;7.32;5.88;;;24.40;82.10;;;;;;5027582;28;46346;-70
2022/08/17 13:25:02;;;;;;;9.10;6.25;;;24.40;81.20;;;;;;5048918;28;45566;-71
2022/08/17 13:27:31;;;;;;;6.57;5.45;;;24.40;82.10;;;;;;5033801;28;45386;-70
2022/08/17 13:30:04;;;;;;;6.78;5.78;;;24.40;82.20;;;;;;5075466;27;45376;-71
2022/08/17 13:32:41;;;;;;;7.20;6.20;;;24.40;82.10;;;;;;5037538;27;45531;-69
2022/08/17 13:35:39;;;;;;;7.05;5.63;;;24.40;82.10;;;;;;5058526;27;45359;-69
2022/08/17 13:38:09;;;;;;;7.35;5.82;;;24.40;82.10;;;;;;5094780;27;45371;-69
2022/08/17 13:40:44;;;;;;;7.90;6.00;;;24.40;82.10;;;;;;5032878;28;45256;-69
2022/08/17 13:43:12;;;;;;;8.32;6.38;;;24.40;82.10;;;;;;5061784;27;48674;-69
2022/08/17 13:45:47;;;;;;;6.85;5.63;;;24.40;82.10;;;;;;5063096;27;45286;-69
2022/08/17 13:48:23;;;;;;;10.45;6.85;;;24.40;82.10;;;;;;5048804;27;45663;-69